sensor_id;sensor_type;location;lat;lon;timestamp;P1;durP1;ratioP1;P2;durP2;ratioP2
24713;SDS011;12820;51.580;5.010;2023-03-14T00:00:31;10.10;;;2.05;;
24713;SDS011;12820;51.580;5.010;2023-03-14T00:05:34;8.30;;;1.50;;
24713;SDS011;12820;51.580;5.010;2023-03-14T00:10:36;9.98;;;1.75;;
24713;SDS011;12820;51.580;5.010;2023-03-14T00:15:38;13.57;;;1.95;;
24713;SDS011;12820;51.580;5.010;2023-03-14T00:20:41;12.40;;;2.08;;
24713;SDS011;12820;51.580;5.010;2023-03-14T00:25:43;11.45;;;2.42;;
24713;SDS011;12820;51.580;5.010;2023-03-14T00:30:45;12.48;;;2.25;;
24713;SDS011;12820;51.580;5.010;2023-03-14T00:35:54;8.43;;;1.83;;
24713;SDS011;12820;51.580;5.010;2023-03-14T00:46:00;11.30;;;1.60;;
24713;SDS011;12820;51.580;5.010;2023-03-14T00:51:03;11.27;;;1.50;;
24713;SDS011;12820;51.580;5.010;2023-03-14T00:56:08;10.38;;;1.58;;
24713;SDS011;12820;51.580;5.010;2023-03-14T01:01:14;9.07;;;1.63;;
24713;SDS011;12820;51.580;5.010;2023-03-14T01:06:21;9.57;;;1.67;;
24713;SDS011;12820;51.580;5.010;2023-03-14T01:11:28;8.73;;;1.40;;
24713;SDS011;12820;51.580;5.010;2023-03-14T01:16:33;7.38;;;1.63;;
24713;SDS011;12820;51.580;5.010;2023-03-14T01:21:36;10.15;;;1.20;;
24713;SDS011;12820;51.580;5.010;2023-03-14T01:26:38;9.40;;;1.65;;
24713;SDS011;12820;51.580;5.010;2023-03-14T01:31:42;10.32;;;1.35;;
24713;SDS011;12820;51.580;5.010;2023-03-14T01:36:45;11.27;;;1.30;;
24713;SDS011;12820;51.580;5.010;2023-03-14T01:41:47;12.32;;;1.95;;
24713;SDS011;12820;51.580;5.010;2023-03-14T01:46:49;10.35;;;1.60;;
24713;SDS011;12820;51.580;5.010;2023-03-14T02:02:11;11.82;;;1.55;;
24713;SDS011;12820;51.580;5.010;2023-03-14T02:07:18;9.27;;;1.70;;
24713;SDS011;12820;51.580;5.010;2023-03-14T02:12:40;7.40;;;1.55;;
24713;SDS011;12820;51.580;5.010;2023-03-14T02:18:08;11.05;;;2.05;;
24713;SDS011;12820;51.580;5.010;2023-03-14T02:24:05;9.15;;;1.88;;
24713;SDS011;12820;51.580;5.010;2023-03-14T02:29:05;11.98;;;2.13;;
24713;SDS011;12820;51.580;5.010;2023-03-14T02:34:08;11.60;;;2.15;;
24713;SDS011;12820;51.580;5.010;2023-03-14T02:39:33;11.50;;;2.03;;
24713;SDS011;12820;51.580;5.010;2023-03-14T02:44:47;12.90;;;2.33;;
24713;SDS011;12820;51.580;5.010;2023-03-14T02:49:51;10.38;;;2.05;;
24713;SDS011;12820;51.580;5.010;2023-03-14T02:54:56;10.02;;;2.03;;
24713;SDS011;12820;51.580;5.010;2023-03-14T03:00:00;11.13;;;2.08;;
24713;SDS011;12820;51.580;5.010;2023-03-14T03:05:08;12.98;;;2.20;;
24713;SDS011;12820;51.580;5.010;2023-03-14T03:10:10;13.93;;;2.15;;
24713;SDS011;12820;51.580;5.010;2023-03-14T03:15:13;10.52;;;1.95;;
24713;SDS011;12820;51.580;5.010;2023-03-14T03:20:15;17.77;;;2.13;;
24713;SDS011;12820;51.580;5.010;2023-03-14T03:25:18;10.73;;;1.50;;
24713;SDS011;12820;51.580;5.010;2023-03-14T03:30:20;11.60;;;2.05;;
24713;SDS011;12820;51.580;5.010;2023-03-14T03:35:22;15.02;;;1.92;;
24713;SDS011;12820;51.580;5.010;2023-03-14T03:40:27;18.27;;;1.90;;
24713;SDS011;12820;51.580;5.010;2023-03-14T03:45:30;14.90;;;2.05;;
24713;SDS011;12820;51.580;5.010;2023-03-14T03:50:32;10.88;;;1.60;;
24713;SDS011;12820;51.580;5.010;2023-03-14T03:55:34;7.07;;;1.35;;
24713;SDS011;12820;51.580;5.010;2023-03-14T04:00:36;11.73;;;1.67;;
24713;SDS011;12820;51.580;5.010;2023-03-14T04:05:39;7.97;;;1.48;;
24713;SDS011;12820;51.580;5.010;2023-03-14T04:10:45;8.65;;;1.27;;
24713;SDS011;12820;51.580;5.010;2023-03-14T04:15:54;10.32;;;1.15;;
24713;SDS011;12820;51.580;5.010;2023-03-14T04:20:59;10.48;;;1.70;;
24713;SDS011;12820;51.580;5.010;2023-03-14T04:31:17;6.45;;;1.50;;
24713;SDS011;12820;51.580;5.010;2023-03-14T04:36:21;8.70;;;1.65;;
24713;SDS011;12820;51.580;5.010;2023-03-14T04:41:24;11.80;;;1.85;;
24713;SDS011;12820;51.580;5.010;2023-03-14T04:46:26;8.18;;;1.75;;
24713;SDS011;12820;51.580;5.010;2023-03-14T04:51:28;9.20;;;1.80;;
24713;SDS011;12820;51.580;5.010;2023-03-14T04:56:31;6.80;;;1.67;;
24713;SDS011;12820;51.580;5.010;2023-03-14T05:01:35;7.10;;;1.58;;
24713;SDS011;12820;51.580;5.010;2023-03-14T05:06:55;5.78;;;1.42;;
24713;SDS011;12820;51.580;5.010;2023-03-14T05:12:08;7.22;;;1.92;;
24713;SDS011;12820;51.580;5.010;2023-03-14T05:17:25;8.20;;;2.35;;
24713;SDS011;12820;51.580;5.010;2023-03-14T05:22:45;8.52;;;2.65;;
24713;SDS011;12820;51.580;5.010;2023-03-14T05:28:13;10.45;;;3.10;;
24713;SDS011;12820;51.580;5.010;2023-03-14T05:33:38;9.18;;;3.40;;
24713;SDS011;12820;51.580;5.010;2023-03-14T05:38:48;12.88;;;3.78;;
24713;SDS011;12820;51.580;5.010;2023-03-14T05:44:16;10.60;;;4.25;;
24713;SDS011;12820;51.580;5.010;2023-03-14T05:49:45;12.52;;;4.57;;
24713;SDS011;12820;51.580;5.010;2023-03-14T05:54:53;12.23;;;4.10;;
24713;SDS011;12820;51.580;5.010;2023-03-14T06:00:18;11.05;;;4.50;;
24713;SDS011;12820;51.580;5.010;2023-03-14T06:05:38;9.75;;;4.45;;
24713;SDS011;12820;51.580;5.010;2023-03-14T06:10:40;15.00;;;5.47;;
24713;SDS011;12820;51.580;5.010;2023-03-14T06:15:43;13.13;;;5.90;;
24713;SDS011;12820;51.580;5.010;2023-03-14T06:20:46;12.95;;;5.50;;
24713;SDS011;12820;51.580;5.010;2023-03-14T06:25:56;12.25;;;6.93;;
24713;SDS011;12820;51.580;5.010;2023-03-14T06:31:01;13.10;;;6.50;;
24713;SDS011;12820;51.580;5.010;2023-03-14T06:36:09;16.33;;;7.57;;
24713;SDS011;12820;51.580;5.010;2023-03-14T06:41:13;16.45;;;8.15;;
24713;SDS011;12820;51.580;5.010;2023-03-14T06:46:18;15.70;;;8.75;;
24713;SDS011;12820;51.580;5.010;2023-03-14T06:51:20;14.77;;;8.27;;
24713;SDS011;12820;51.580;5.010;2023-03-14T06:56:24;12.35;;;5.25;;
24713;SDS011;12820;51.580;5.010;2023-03-14T07:01:28;4.97;;;1.95;;
24713;SDS011;12820;51.580;5.010;2023-03-14T07:06:39;4.18;;;2.22;;
24713;SDS011;12820;51.580;5.010;2023-03-14T07:11:46;6.63;;;1.85;;
24713;SDS011;12820;51.580;5.010;2023-03-14T07:16:49;5.88;;;2.05;;
24713;SDS011;12820;51.580;5.010;2023-03-14T07:21:51;4.45;;;1.95;;
24713;SDS011;12820;51.580;5.010;2023-03-14T07:27:00;10.88;;;2.20;;
24713;SDS011;12820;51.580;5.010;2023-03-14T07:32:03;7.25;;;2.38;;
24713;SDS011;12820;51.580;5.010;2023-03-14T07:37:05;6.15;;;3.08;;
24713;SDS011;12820;51.580;5.010;2023-03-14T07:42:07;5.28;;;2.53;;
24713;SDS011;12820;51.580;5.010;2023-03-14T07:47:42;7.05;;;2.20;;
24713;SDS011;12820;51.580;5.010;2023-03-14T07:52:44;4.05;;;2.38;;
24713;SDS011;12820;51.580;5.010;2023-03-14T07:57:46;4.47;;;1.58;;
24713;SDS011;12820;51.580;5.010;2023-03-14T08:02:48;7.45;;;1.98;;
24713;SDS011;12820;51.580;5.010;2023-03-14T08:07:50;5.30;;;1.60;;
24713;SDS011;12820;51.580;5.010;2023-03-14T08:12:54;7.03;;;1.80;;
24713;SDS011;12820;51.580;5.010;2023-03-14T08:17:58;4.55;;;1.70;;
24713;SDS011;12820;51.580;5.010;2023-03-14T08:23:00;8.32;;;2.10;;
24713;SDS011;12820;51.580;5.010;2023-03-14T08:28:03;8.38;;;1.58;;
24713;SDS011;12820;51.580;5.010;2023-03-14T08:33:05;8.02;;;1.90;;
24713;SDS011;12820;51.580;5.010;2023-03-14T08:38:08;5.80;;;1.50;;
24713;SDS011;12820;51.580;5.010;2023-03-14T08:43:10;7.72;;;2.10;;
24713;SDS011;12820;51.580;5.010;2023-03-14T08:48:12;7.40;;;2.33;;
24713;SDS011;12820;51.580;5.010;2023-03-14T08:53:14;6.40;;;1.65;;
24713;SDS011;12820;51.580;5.010;2023-03-14T08:58:17;8.45;;;2.40;;
24713;SDS011;12820;51.580;5.010;2023-03-14T09:03:19;4.10;;;1.05;;
24713;SDS011;12820;51.580;5.010;2023-03-14T09:08:21;5.40;;;1.52;;
24713;SDS011;12820;51.580;5.010;2023-03-14T09:13:23;4.25;;;1.20;;
24713;SDS011;12820;51.580;5.010;2023-03-14T09:18:25;6.00;;;2.15;;
24713;SDS011;12820;51.580;5.010;2023-03-14T09:23:27;6.18;;;2.20;;
24713;SDS011;12820;51.580;5.010;2023-03-14T09:28:29;6.22;;;1.17;;
24713;SDS011;12820;51.580;5.010;2023-03-14T09:33:32;5.93;;;1.33;;
24713;SDS011;12820;51.580;5.010;2023-03-14T09:38:34;4.35;;;0.82;;
24713;SDS011;12820;51.580;5.010;2023-03-14T09:43:36;2.67;;;0.68;;
24713;SDS011;12820;51.580;5.010;2023-03-14T09:48:38;4.63;;;0.98;;
24713;SDS011;12820;51.580;5.010;2023-03-14T09:53:45;4.95;;;1.00;;
24713;SDS011;12820;51.580;5.010;2023-03-14T09:58:53;4.95;;;0.80;;
24713;SDS011;12820;51.580;5.010;2023-03-14T10:04:02;5.63;;;1.10;;
24713;SDS011;12820;51.580;5.010;2023-03-14T10:09:14;7.15;;;1.25;;
24713;SDS011;12820;51.580;5.010;2023-03-14T10:14:31;7.43;;;1.30;;
24713;SDS011;12820;51.580;5.010;2023-03-14T10:19:35;10.00;;;1.38;;
24713;SDS011;12820;51.580;5.010;2023-03-14T10:24:38;10.50;;;1.15;;
24713;SDS011;12820;51.580;5.010;2023-03-14T10:29:58;11.10;;;1.20;;
24713;SDS011;12820;51.580;5.010;2023-03-14T10:40:18;10.48;;;1.50;;
24713;SDS011;12820;51.580;5.010;2023-03-14T10:45:36;15.63;;;1.73;;
24713;SDS011;12820;51.580;5.010;2023-03-14T10:50:57;12.90;;;1.90;;
24713;SDS011;12820;51.580;5.010;2023-03-14T10:56:05;13.10;;;1.92;;
24713;SDS011;12820;51.580;5.010;2023-03-14T11:01:27;12.90;;;1.92;;
24713;SDS011;12820;51.580;5.010;2023-03-14T11:12:47;18.90;;;2.47;;
24713;SDS011;12820;51.580;5.010;2023-03-14T11:17:39;15.10;;;2.15;;
24713;SDS011;12820;51.580;5.010;2023-03-14T11:22:50;19.23;;;4.07;;
24713;SDS011;12820;51.580;5.010;2023-03-14T11:28:22;18.77;;;3.08;;
24713;SDS011;12820;51.580;5.010;2023-03-14T11:33:39;21.40;;;3.25;;
24713;SDS011;12820;51.580;5.010;2023-03-14T11:38:53;21.42;;;3.00;;
24713;SDS011;12820;51.580;5.010;2023-03-14T11:44:01;17.25;;;2.83;;
24713;SDS011;12820;51.580;5.010;2023-03-14T12:16:32;14.15;;;2.80;;
24713;SDS011;12820;51.580;5.010;2023-03-14T12:21:44;19.30;;;3.53;;
24713;SDS011;12820;51.580;5.010;2023-03-14T12:26:55;16.30;;;2.70;;
24713;SDS011;12820;51.580;5.010;2023-03-14T12:37:06;13.20;;;2.33;;
24713;SDS011;12820;51.580;5.010;2023-03-14T12:47:53;13.05;;;2.10;;
24713;SDS011;12820;51.580;5.010;2023-03-14T12:53:10;12.93;;;1.50;;
24713;SDS011;12820;51.580;5.010;2023-03-14T12:58:31;9.35;;;1.92;;
24713;SDS011;12820;51.580;5.010;2023-03-14T13:03:42;14.13;;;1.92;;
24713;SDS011;12820;51.580;5.010;2023-03-14T13:08:47;10.60;;;2.10;;
24713;SDS011;12820;51.580;5.010;2023-03-14T13:13:52;12.57;;;1.85;;
24713;SDS011;12820;51.580;5.010;2023-03-14T13:18:59;12.82;;;1.88;;
24713;SDS011;12820;51.580;5.010;2023-03-14T13:24:06;13.55;;;2.22;;
24713;SDS011;12820;51.580;5.010;2023-03-14T13:29:21;11.65;;;1.70;;
24713;SDS011;12820;51.580;5.010;2023-03-14T13:34:26;13.10;;;1.80;;
24713;SDS011;12820;51.580;5.010;2023-03-14T13:39:32;14.40;;;1.85;;
24713;SDS011;12820;51.580;5.010;2023-03-14T13:44:35;9.43;;;1.63;;
24713;SDS011;12820;51.580;5.010;2023-03-14T13:49:40;9.40;;;1.63;;
24713;SDS011;12820;51.580;5.010;2023-03-14T13:54:42;7.88;;;1.42;;
24713;SDS011;12820;51.580;5.010;2023-03-14T13:59:45;11.10;;;2.00;;
24713;SDS011;12820;51.580;5.010;2023-03-14T14:05:00;9.00;;;1.73;;
24713;SDS011;12820;51.580;5.010;2023-03-14T14:10:03;7.22;;;1.42;;
24713;SDS011;12820;51.580;5.010;2023-03-14T14:20:24;6.10;;;1.38;;
24713;SDS011;12820;51.580;5.010;2023-03-14T14:25:33;9.63;;;1.50;;
24713;SDS011;12820;51.580;5.010;2023-03-14T14:30:35;8.40;;;1.35;;
24713;SDS011;12820;51.580;5.010;2023-03-14T14:35:37;9.38;;;1.30;;
24713;SDS011;12820;51.580;5.010;2023-03-14T14:40:44;8.18;;;1.33;;
24713;SDS011;12820;51.580;5.010;2023-03-14T14:45:51;9.63;;;1.60;;
24713;SDS011;12820;51.580;5.010;2023-03-14T14:56:13;9.35;;;1.25;;
24713;SDS011;12820;51.580;5.010;2023-03-14T15:01:20;9.68;;;1.63;;
24713;SDS011;12820;51.580;5.010;2023-03-14T15:06:26;10.00;;;1.73;;
24713;SDS011;12820;51.580;5.010;2023-03-14T15:11:30;7.65;;;1.27;;
24713;SDS011;12820;51.580;5.010;2023-03-14T15:16:33;10.70;;;1.58;;
24713;SDS011;12820;51.580;5.010;2023-03-14T15:21:35;8.75;;;1.45;;
24713;SDS011;12820;51.580;5.010;2023-03-14T15:26:37;8.65;;;1.40;;
24713;SDS011;12820;51.580;5.010;2023-03-14T15:31:40;10.77;;;1.38;;
24713;SDS011;12820;51.580;5.010;2023-03-14T15:36:45;8.68;;;1.10;;
24713;SDS011;12820;51.580;5.010;2023-03-14T15:41:47;10.02;;;1.42;;
24713;SDS011;12820;51.580;5.010;2023-03-14T15:46:50;9.60;;;2.03;;
24713;SDS011;12820;51.580;5.010;2023-03-14T15:51:52;10.30;;;1.70;;
24713;SDS011;12820;51.580;5.010;2023-03-14T15:56:54;9.48;;;1.33;;
24713;SDS011;12820;51.580;5.010;2023-03-14T16:01:57;8.07;;;1.33;;
24713;SDS011;12820;51.580;5.010;2023-03-14T16:07:00;12.10;;;1.55;;
24713;SDS011;12820;51.580;5.010;2023-03-14T16:12:02;10.77;;;1.88;;
24713;SDS011;12820;51.580;5.010;2023-03-14T16:17:06;9.98;;;1.55;;
24713;SDS011;12820;51.580;5.010;2023-03-14T16:22:12;13.48;;;1.67;;
24713;SDS011;12820;51.580;5.010;2023-03-14T16:27:14;10.13;;;1.75;;
24713;SDS011;12820;51.580;5.010;2023-03-14T16:32:16;8.88;;;1.52;;
24713;SDS011;12820;51.580;5.010;2023-03-14T16:37:20;7.97;;;1.60;;
24713;SDS011;12820;51.580;5.010;2023-03-14T16:42:24;7.55;;;1.55;;
24713;SDS011;12820;51.580;5.010;2023-03-14T16:47:27;7.65;;;1.27;;
24713;SDS011;12820;51.580;5.010;2023-03-14T16:52:30;11.13;;;1.30;;
24713;SDS011;12820;51.580;5.010;2023-03-14T16:57:33;11.63;;;1.55;;
24713;SDS011;12820;51.580;5.010;2023-03-14T17:02:35;11.75;;;1.90;;
24713;SDS011;12820;51.580;5.010;2023-03-14T17:07:37;11.32;;;1.85;;
24713;SDS011;12820;51.580;5.010;2023-03-14T17:12:39;12.52;;;1.83;;
24713;SDS011;12820;51.580;5.010;2023-03-14T17:17:41;8.02;;;1.27;;
24713;SDS011;12820;51.580;5.010;2023-03-14T17:22:43;10.80;;;1.50;;
24713;SDS011;12820;51.580;5.010;2023-03-14T17:27:45;8.50;;;1.92;;
24713;SDS011;12820;51.580;5.010;2023-03-14T17:32:47;10.82;;;1.63;;
24713;SDS011;12820;51.580;5.010;2023-03-14T17:37:50;11.98;;;1.70;;
24713;SDS011;12820;51.580;5.010;2023-03-14T17:42:52;6.85;;;1.50;;
24713;SDS011;12820;51.580;5.010;2023-03-14T17:47:54;14.10;;;2.10;;
24713;SDS011;12820;51.580;5.010;2023-03-14T17:52:56;10.65;;;1.50;;
24713;SDS011;12820;51.580;5.010;2023-03-14T17:57:58;13.35;;;1.42;;
24713;SDS011;12820;51.580;5.010;2023-03-14T18:03:02;9.20;;;1.60;;
24713;SDS011;12820;51.580;5.010;2023-03-14T18:08:04;10.93;;;1.83;;
24713;SDS011;12820;51.580;5.010;2023-03-14T18:13:07;12.73;;;1.73;;
24713;SDS011;12820;51.580;5.010;2023-03-14T18:18:09;15.23;;;2.22;;
24713;SDS011;12820;51.580;5.010;2023-03-14T18:23:11;11.27;;;2.15;;
24713;SDS011;12820;51.580;5.010;2023-03-14T18:28:14;9.32;;;2.28;;
24713;SDS011;12820;51.580;5.010;2023-03-14T18:33:21;17.17;;;2.30;;
24713;SDS011;12820;51.580;5.010;2023-03-14T18:38:23;14.85;;;2.80;;
24713;SDS011;12820;51.580;5.010;2023-03-14T18:43:25;18.80;;;2.72;;
24713;SDS011;12820;51.580;5.010;2023-03-14T18:48:28;12.45;;;2.50;;
24713;SDS011;12820;51.580;5.010;2023-03-14T18:53:30;10.57;;;2.72;;
24713;SDS011;12820;51.580;5.010;2023-03-14T18:58:33;15.00;;;3.15;;
24713;SDS011;12820;51.580;5.010;2023-03-14T19:03:35;19.70;;;4.68;;
24713;SDS011;12820;51.580;5.010;2023-03-14T19:08:38;11.57;;;2.80;;
24713;SDS011;12820;51.580;5.010;2023-03-14T19:13:42;14.05;;;3.22;;
24713;SDS011;12820;51.580;5.010;2023-03-14T19:18:45;16.15;;;3.33;;
24713;SDS011;12820;51.580;5.010;2023-03-14T19:23:47;15.35;;;2.75;;
24713;SDS011;12820;51.580;5.010;2023-03-14T19:28:50;11.02;;;2.72;;
24713;SDS011;12820;51.580;5.010;2023-03-14T19:33:55;18.13;;;3.72;;
24713;SDS011;12820;51.580;5.010;2023-03-14T19:38:59;12.48;;;3.78;;
24713;SDS011;12820;51.580;5.010;2023-03-14T19:44:04;11.05;;;2.95;;
24713;SDS011;12820;51.580;5.010;2023-03-14T19:49:06;16.45;;;2.88;;
24713;SDS011;12820;51.580;5.010;2023-03-14T19:54:08;14.18;;;2.95;;
24713;SDS011;12820;51.580;5.010;2023-03-14T19:59:11;11.27;;;3.03;;
24713;SDS011;12820;51.580;5.010;2023-03-14T20:04:13;18.38;;;5.07;;
24713;SDS011;12820;51.580;5.010;2023-03-14T20:09:15;17.27;;;2.70;;
24713;SDS011;12820;51.580;5.010;2023-03-14T20:14:17;10.77;;;2.85;;
24713;SDS011;12820;51.580;5.010;2023-03-14T20:19:20;14.93;;;2.70;;
24713;SDS011;12820;51.580;5.010;2023-03-14T20:24:23;9.90;;;2.58;;
24713;SDS011;12820;51.580;5.010;2023-03-14T20:29:25;9.70;;;2.55;;
24713;SDS011;12820;51.580;5.010;2023-03-14T20:34:27;9.95;;;2.50;;
24713;SDS011;12820;51.580;5.010;2023-03-14T20:39:33;11.50;;;3.20;;
24713;SDS011;12820;51.580;5.010;2023-03-14T20:44:36;18.25;;;3.42;;
24713;SDS011;12820;51.580;5.010;2023-03-14T20:49:39;11.38;;;2.75;;
24713;SDS011;12820;51.580;5.010;2023-03-14T20:54:41;16.92;;;2.85;;
24713;SDS011;12820;51.580;5.010;2023-03-14T20:59:43;11.50;;;3.33;;
24713;SDS011;12820;51.580;5.010;2023-03-14T21:04:45;15.73;;;4.13;;
24713;SDS011;12820;51.580;5.010;2023-03-14T21:09:48;23.88;;;5.20;;
24713;SDS011;12820;51.580;5.010;2023-03-14T21:14:50;31.77;;;9.45;;
24713;SDS011;12820;51.580;5.010;2023-03-14T21:19:52;24.02;;;6.85;;
24713;SDS011;12820;51.580;5.010;2023-03-14T21:24:59;20.15;;;4.22;;
24713;SDS011;12820;51.580;5.010;2023-03-14T21:30:01;19.45;;;5.10;;
24713;SDS011;12820;51.580;5.010;2023-03-14T21:35:03;15.10;;;3.60;;
24713;SDS011;12820;51.580;5.010;2023-03-14T21:40:05;16.25;;;3.85;;
24713;SDS011;12820;51.580;5.010;2023-03-14T21:45:09;14.77;;;4.10;;
24713;SDS011;12820;51.580;5.010;2023-03-14T21:50:13;20.75;;;4.25;;
24713;SDS011;12820;51.580;5.010;2023-03-14T21:55:18;19.27;;;4.10;;
24713;SDS011;12820;51.580;5.010;2023-03-14T22:00:20;10.95;;;2.58;;
24713;SDS011;12820;51.580;5.010;2023-03-14T22:05:23;9.63;;;2.15;;
24713;SDS011;12820;51.580;5.010;2023-03-14T22:10:25;6.00;;;1.50;;
24713;SDS011;12820;51.580;5.010;2023-03-14T22:15:27;5.70;;;0.98;;
24713;SDS011;12820;51.580;5.010;2023-03-14T22:20:29;4.55;;;1.02;;
24713;SDS011;12820;51.580;5.010;2023-03-14T22:25:31;5.57;;;0.90;;
24713;SDS011;12820;51.580;5.010;2023-03-14T22:30:34;8.20;;;1.48;;
24713;SDS011;12820;51.580;5.010;2023-03-14T22:35:36;6.03;;;1.13;;
24713;SDS011;12820;51.580;5.010;2023-03-14T22:40:38;4.03;;;1.10;;
24713;SDS011;12820;51.580;5.010;2023-03-14T22:45:40;5.78;;;1.00;;
24713;SDS011;12820;51.580;5.010;2023-03-14T22:50:43;3.25;;;0.90;;
24713;SDS011;12820;51.580;5.010;2023-03-14T22:55:45;5.55;;;0.80;;
24713;SDS011;12820;51.580;5.010;2023-03-14T23:00:47;5.93;;;0.90;;
24713;SDS011;12820;51.580;5.010;2023-03-14T23:05:49;3.25;;;0.80;;
24713;SDS011;12820;51.580;5.010;2023-03-14T23:10:57;3.72;;;0.88;;
24713;SDS011;12820;51.580;5.010;2023-03-14T23:16:00;4.53;;;1.08;;
24713;SDS011;12820;51.580;5.010;2023-03-14T23:21:13;7.68;;;1.23;;
24713;SDS011;12820;51.580;5.010;2023-03-14T23:26:19;2.83;;;1.00;;
24713;SDS011;12820;51.580;5.010;2023-03-14T23:31:25;6.18;;;1.30;;
24713;SDS011;12820;51.580;5.010;2023-03-14T23:36:28;7.90;;;1.60;;
24713;SDS011;12820;51.580;5.010;2023-03-14T23:41:30;5.25;;;1.10;;
24713;SDS011;12820;51.580;5.010;2023-03-14T23:46:32;7.25;;;1.45;;
24713;SDS011;12820;51.580;5.010;2023-03-14T23:51:34;7.60;;;1.33;;
24713;SDS011;12820;51.580;5.010;2023-03-14T23:56:36;7.88;;;1.70;;
